Time;durP1;ratioP1;P1;durP2;ratioP2;P2;SDS_P1;SDS_P2;PMS_P1;PMS_P2;Temp;Humidity;BMP_temperature;BMP_pressure;BME280_temperature;BME280_humidity;BME280_pressure;Samples;Min_cycle;Max_cycle;Signal;HPM_P1;HPM_P2
2022/09/07 00:01:10;;;;;;;1.90;1.23;;;;;;;24.48;42.05;99878.06;5054539;28;20049;-63
2022/09/07 00:03:37;;;;;;;5.30;1.48;;;;;;;24.30;42.57;99957.97;5054155;28;20052;-63
2022/09/07 00:06:07;;;;;;;3.13;1.45;;;;;;;24.24;42.78;99996.66;5053920;28;20053;-63
2022/09/07 00:08:35;;;;;;;12.40;1.83;;;;;;;24.02;43.46;99998.84;5053669;28;20060;-63
2022/09/07 00:11:04;;;;;;;7.55;1.70;;;;;;;23.86;44.14;100014.41;5054334;28;20049;-63
2022/09/07 00:13:35;;;;;;;8.80;1.67;;;;;;;23.76;44.86;100026.66;5054484;28;20083;-63
2022/09/07 00:16:06;;;;;;;8.27;1.60;;;;;;;23.59;45.68;100019.03;5054140;28;20048;-62
2022/09/07 00:18:33;;;;;;;7.72;1.40;;;;;;;23.53;46.32;100040.59;5054467;28;20060;-63
2022/09/07 00:21:03;;;;;;;10.95;1.15;;;;;;;23.53;46.62;100040.59;5052411;28;20049;-63
2022/09/07 00:23:33;;;;;;;4.95;0.82;;;;;;;23.42;47.21;100058.50;5054222;28;20049;-63
2022/09/07 00:26:06;;;;;;;4.07;0.80;;;;;;;23.05;48.74;100059.84;5053786;28;20053;-62
2022/09/07 00:28:36;;;;;;;6.65;1.10;;;;;;;23.02;49.31;100066.34;5054530;28;20068;-63
2022/09/07 00:31:04;;;;;;;2.38;0.95;;;;;;;22.97;49.19;100065.91;5053922;28;20064;-63
2022/09/07 00:33:31;;;;;;;2.05;0.60;;;;;;;22.82;50.11;100063.09;5054158;28;20057;-63
2022/09/07 00:35:59;;;;;;;6.05;0.77;;;;;;;22.73;50.22;100057.03;5059533;28;20060;-62
2022/09/07 00:38:26;;;;;;;2.22;0.60;;;;;;;22.70;50.46;100060.72;5054256;28;20057;-63
2022/09/07 00:40:54;;;;;;;4.97;0.68;;;;;;;22.66;50.25;100069.22;5054018;28;20056;-63
2022/09/07 00:43:31;;;;;;;4.30;0.68;;;;;;;22.61;50.57;100078.13;5053865;28;20265;-63
2022/09/07 00:46:00;;;;;;;1.63;0.57;;;;;;;22.60;50.67;100084.25;5061245;28;20056;-63
2022/09/07 00:48:34;;;;;;;2.33;0.47;;;;;;;22.50;50.87;100080.19;5055942;28;20057;-63
2022/09/07 00:51:05;;;;;;;1.30;0.47;;;;;;;22.61;50.63;100072.47;5053747;28;20079;-63
2022/09/07 00:53:38;;;;;;;0.98;0.40;;;;;;;22.49;50.80;100070.06;5053762;28;20473;-63
2022/09/07 00:56:07;;;;;;;1.42;0.40;;;;;;;22.51;50.78;100073.31;5053620;28;20056;-62
2022/09/07 00:58:36;;;;;;;0.88;0.40;;;;;;;22.43;51.20;100083.84;5052880;28;20059;-63
2022/09/07 01:01:06;;;;;;;9.23;1.00;;;;;;;22.35;51.62;100067.22;5053517;28;20057;-62
2022/09/07 01:03:38;;;;;;;1.60;0.70;;;;;;;22.37;51.77;100074.09;5053414;28;20060;-63
2022/09/07 01:06:11;;;;;;;2.08;0.75;;;;;;;22.36;52.00;100055.44;5053349;28;20170;-64
2022/09/07 01:08:40;;;;;;;1.23;0.50;;;;;;;22.38;52.08;100052.19;5053215;28;20060;-63
2022/09/07 01:11:08;;;;;;;2.33;0.55;;;;;;;22.26;52.85;100047.75;5053130;28;20064;-63
2022/09/07 01:13:36;;;;;;;0.53;0.37;;;;;;;22.29;53.81;100038.44;5056804;28;20048;-63
2022/09/07 01:16:13;;;;;;;1.90;0.50;;;;;;;22.34;54.03;100029.50;5073096;28;21029;-62
2022/09/07 01:18:48;;;;;;;1.63;0.50;;;;;;;21.98;55.84;100040.00;5061545;28;20053;-63
2022/09/07 01:21:24;;;;;;;1.98;0.57;;;;;;;21.98;57.40;100048.50;5053564;28;20057;-63
2022/09/07 01:24:25;;;;;;;4.20;0.98;;;;;;;21.61;64.54;100050.44;5053557;28;20067;-64
2022/09/07 01:27:29;;;;;;;7.68;1.08;;;;;;;21.37;63.76;100068.94;5052845;28;20060;-63
2022/09/07 01:30:04;;;;;;;4.03;0.90;;;;;;;20.87;68.24;100078.00;5053627;28;20060;-63
2022/09/07 01:33:03;;;;;;;3.03;0.70;;;;;;;20.61;69.55;100067.69;5052938;28;20529;-62
2022/09/07 01:35:40;;;;;;;1.40;0.70;;;;;;;20.33;71.41;100067.44;5017769;28;20046;-63
2022/09/07 01:38:14;;;;;;;21.85;1.50;;;;;;;19.93;74.60;100074.72;5034802;28;20476;-62
2022/09/07 01:40:49;;;;;;;24.73;2.80;;;;;;;19.07;86.75;100077.31;5052812;28;20060;-63
2022/09/07 01:43:26;;;;;;;13.05;1.92;;;;;;;18.75;89.09;100082.44;5052698;28;20049;-63
2022/09/07 01:45:57;;;;;;;12.48;2.25;;;;;;;18.42;93.80;100069.84;5070113;28;20053;-63
2022/09/07 01:48:26;;;;;;;4.90;2.40;;;;;;;18.38;99.74;100066.16;5071574;28;20087;-64
2022/09/07 01:50:57;;;;;;;;;;;;;;;18.25;100.00;100038.16;5053474;28;20064;-64
2022/09/07 01:53:31;;;;;;;22.08;3.10;;;;;;;18.28;100.00;100044.22;5053032;28;20297;-64
2022/09/07 01:56:05;;;;;;;11.43;2.38;;;;;;;17.93;100.00;100031.13;5032920;28;20406;-64
2022/09/07 01:58:38;;;;;;;6.57;2.42;;;;;;;17.98;100.00;100020.38;5038161;28;20555;-64
2022/09/07 02:01:09;;;;;;;5.15;3.38;;;;;;;17.97;100.00;100015.09;5052605;28;20064;-61
2022/09/07 02:03:42;;;;;;;4.15;2.10;;;;;;;18.04;100.00;100020.88;5053040;28;20136;-64
2022/09/07 02:06:15;;;;;;;9.15;3.90;;;;;;;18.17;100.00;100016.66;5052410;28;20056;-63
2022/09/07 02:08:49;;;;;;;9.07;3.83;;;;;;;18.27;100.00;100006.75;5052931;28;20064;-63
2022/09/07 02:11:19;;;;;;;10.15;4.18;;;;;;;18.37;100.00;99997.66;5051746;28;20060;-64
2022/09/07 02:13:53;;;;;;;8.07;4.03;;;;;;;18.48;100.00;99989.34;5064119;28;20409;-64
2022/09/07 02:16:25;;;;;;;6.72;3.42;;;;;;;18.52;100.00;99972.47;5053909;28;20049;-64
2022/09/07 02:18:56;;;;;;;7.22;3.22;;;;;;;18.61;100.00;99962.53;5052884;28;20064;-64
2022/09/07 02:21:33;;;;;;;8.63;3.78;;;;;;;18.64;100.00;99953.31;5052122;28;20064;-64
2022/09/07 02:24:05;;;;;;;5.78;2.45;;;;;;;18.54;100.00;99942.72;5052512;28;20060;-64
2022/09/07 02:26:37;;;;;;;4.78;3.00;;;;;;;18.61;100.00;99939.97;5051903;28;20516;-64
2022/09/07 02:29:07;;;;;;;8.30;4.30;;;;;;;18.69;100.00;99929.63;5052081;28;20057;-64
2022/09/07 02:31:34;;;;;;;7.03;4.18;;;;;;;18.75;100.00;99925.25;5052625;28;20056;-64
2022/09/07 02:34:02;;;;;;;9.02;4.68;;;;;;;18.85;100.00;99920.97;5052446;28;20379;-64
2022/09/07 02:36:34;;;;;;;5.57;3.33;;;;;;;18.77;100.00;99905.09;5051740;28;20417;-64
2022/09/07 02:39:01;;;;;;;7.95;3.88;;;;;;;18.66;100.00;99905.78;5052442;28;20049;-63
2022/09/07 02:41:38;;;;;;;5.05;2.75;;;;;;;18.56;100.00;99903.66;5052910;28;20052;-64
2022/09/07 02:44:12;;;;;;;5.40;3.38;;;;;;;18.60;100.00;99903.69;5072208;28;20397;-64
2022/09/07 02:46:52;;;;;;;4.13;2.97;;;;;;;18.59;100.00;99899.25;5067090;28;20489;-64
2022/09/07 02:49:36;;;;;;;4.80;3.10;;;;;;;18.70;100.00;99894.56;5072390;28;20056;-64
2022/09/07 02:52:13;;;;;;;6.93;3.97;;;;;;;18.83;100.00;99890.28;5057846;28;20520;-64
2022/09/07 02:54:52;;;;;;;7.10;4.38;;;;;;;18.91;100.00;99887.56;5052709;28;20056;-64
2022/09/07 02:57:32;;;;;;;6.13;3.33;;;;;;;18.75;98.29;99877.31;5051863;28;20422;-64
2022/09/07 03:00:07;;;;;;;4.07;2.03;;;;;;;18.75;96.68;99870.81;5071462;28;20049;-64
2022/09/07 03:02:44;;;;;;;5.80;2.65;;;;;;;18.68;96.13;99865.91;5055985;28;20056;-64
2022/09/07 03:05:18;;;;;;;6.22;3.50;;;;;;;18.73;97.33;99853.47;5051977;28;20049;-64
2022/09/07 03:07:53;;;;;;;6.55;3.33;;;;;;;18.72;97.64;99855.47;5051653;28;20056;-64
2022/09/07 03:10:21;;;;;;;6.30;3.85;;;;;;;18.75;98.29;99857.53;5051774;28;20057;-64
2022/09/07 03:12:50;;;;;;;9.32;4.60;;;;;;;18.78;97.97;99862.44;5052768;28;20516;-64
2022/09/07 03:15:21;;;;;;;7.93;4.88;;;;;;;18.80;98.37;99853.59;5070826;28;20071;-64
2022/09/07 03:17:49;;;;;;;7.88;5.13;;;;;;;18.80;98.45;99845.13;5058184;28;20502;-64
2022/09/07 03:20:17;;;;;;;8.88;4.78;;;;;;;18.82;98.29;99840.72;5051933;28;20402;-64
2022/09/07 03:22:45;;;;;;;8.68;4.55;;;;;;;18.82;97.84;99840.72;5051807;28;20417;-64
2022/09/07 03:25:13;;;;;;;8.80;4.88;;;;;;;18.82;98.09;99845.56;5051648;28;20068;-64
2022/09/07 03:27:41;;;;;;;6.20;4.10;;;;;;;18.76;97.88;99842.22;5051002;28;20049;-64
2022/09/07 03:30:10;;;;;;;6.55;3.47;;;;;;;18.74;97.24;99846.63;5051649;28;20060;-64
2022/09/07 03:32:39;;;;;;;6.18;3.83;;;;;;;18.70;97.29;99848.59;5051756;28;20056;-64
2022/09/07 03:35:08;;;;;;;5.97;4.28;;;;;;;18.69;97.16;99846.97;5051838;28;20136;-64
2022/09/07 03:37:36;;;;;;;6.82;4.63;;;;;;;18.66;97.31;99852.19;5051910;28;20060;-64
2022/09/07 03:40:05;;;;;;;8.52;5.18;;;;;;;18.65;97.63;99853.38;5051599;28;20484;-64
2022/09/07 03:42:33;;;;;;;10.15;5.18;;;;;;;18.63;97.43;99861.44;5058546;28;20236;-64
2022/09/07 03:45:00;;;;;;;7.38;4.75;;;;;;;18.62;96.67;99856.97;5051979;28;20061;-64
2022/09/07 03:47:28;;;;;;;9.60;5.60;;;;;;;18.59;96.83;99863.38;5051340;28;20041;-64
2022/09/07 03:49:57;;;;;;;8.15;5.07;;;;;;;18.57;96.86;99857.31;5052121;28;20049;-64
2022/09/07 03:52:24;;;;;;;7.57;5.25;;;;;;;18.55;96.56;99859.72;5051428;28;20057;-64
2022/09/07 03:54:51;;;;;;;9.23;5.85;;;;;;;18.55;96.24;99868.16;5051503;28;20486;-63
2022/09/07 03:57:19;;;;;;;9.25;5.75;;;;;;;18.55;95.87;99868.16;5073566;28;20044;-65
2022/09/07 03:59:46;;;;;;;9.85;5.20;;;;;;;18.57;95.48;99862.97;5055697;28;20052;-64
2022/09/07 04:02:14;;;;;;;10.13;5.65;;;;;;;18.57;95.18;99857.31;5055093;28;20528;-64
2022/09/07 04:04:42;;;;;;;11.55;6.05;;;;;;;18.58;95.10;99858.13;5055251;28;20053;-64
2022/09/07 04:07:11;;;;;;;7.22;4.85;;;;;;;18.58;94.87;99853.31;5055003;28;20402;-64
2022/09/07 04:09:38;;;;;;;6.20;3.97;;;;;;;18.41;93.89;99857.50;5054317;28;20064;-64
2022/09/07 04:12:05;;;;;;;7.75;4.43;;;;;;;18.39;94.02;99853.44;5072420;28;20417;-65
2022/09/07 04:14:33;;;;;;;7.38;4.88;;;;;;;18.37;93.87;99856.69;5061400;28;20061;-63
2022/09/07 04:17:00;;;;;;;7.40;4.32;;;;;;;18.32;93.65;99856.19;5055200;28;20409;-64
2022/09/07 04:19:29;;;;;;;6.63;4.70;;;;;;;18.30;93.36;99853.75;5054779;28;20512;-64
2022/09/07 04:21:56;;;;;;;10.45;5.82;;;;;;;18.26;93.46;99844.44;5057549;28;20067;-64
2022/09/07 04:24:25;;;;;;;10.65;5.85;;;;;;;18.24;93.70;99850.44;5064933;28;20144;-64
2022/09/07 04:26:53;;;;;;;9.52;5.90;;;;;;;18.24;93.67;99849.63;5054735;28;20057;-64
2022/09/07 04:29:20;;;;;;;8.80;5.68;;;;;;;18.23;93.72;99854.47;5054800;28;20045;-64
2022/09/07 04:31:48;;;;;;;8.18;5.72;;;;;;;18.22;93.71;99843.56;5054353;28;20056;-64
2022/09/07 04:34:15;;;;;;;16.33;8.52;;;;;;;18.21;93.68;99856.03;5054247;28;20049;-63
2022/09/07 04:36:42;;;;;;;17.85;10.07;;;;;;;18.13;93.35;99852.31;5054556;28;20052;-64
2022/09/07 04:39:11;;;;;;;15.05;8.18;;;;;;;18.15;93.60;99854.75;5054476;28;20049;-64
2022/09/07 04:41:39;;;;;;;11.15;6.70;;;;;;;18.12;93.62;99847.88;5072331;28;20539;-63
2022/09/07 04:44:07;;;;;;;12.50;6.78;;;;;;;18.11;93.66;99849.06;5065349;28;20081;-64
2022/09/07 04:46:36;;;;;;;10.65;6.18;;;;;;;18.14;93.56;99850.28;5054244;28;20771;-64
2022/09/07 04:49:07;;;;;;;13.07;6.80;;;;;;;18.11;93.41;99851.88;5054017;28;20057;-64
2022/09/07 04:51:35;;;;;;;11.90;7.40;;;;;;;18.09;93.41;99864.72;5054292;28;20064;-64
2022/09/07 04:54:03;;;;;;;11.68;6.80;;;;;;;18.09;93.21;99859.09;5054458;28;20053;-64
2022/09/07 04:56:31;;;;;;;9.43;5.65;;;;;;;18.09;93.20;99859.91;5053441;28;20053;-64
2022/09/07 04:59:01;;;;;;;7.80;5.20;;;;;;;18.07;92.93;99856.66;5063679;28;20045;-64
2022/09/07 05:01:29;;;;;;;11.93;5.63;;;;;;;18.07;92.87;99861.47;5054092;28;20057;-64
2022/09/07 05:03:58;;;;;;;9.10;5.32;;;;;;;18.10;92.82;99861.53;5053852;28;20040;-64
2022/09/07 05:06:26;;;;;;;9.02;5.40;;;;;;;18.10;92.96;99860.69;5066140;28;20052;-64
2022/09/07 05:08:54;;;;;;;5.93;4.22;;;;;;;18.08;92.53;99869.56;5073668;28;20338;-64
2022/09/07 05:11:23;;;;;;;9.68;5.30;;;;;;;17.95;91.83;99868.13;5060448;28;20494;-64
2022/09/07 05:13:51;;;;;;;5.72;4.47;;;;;;;18.00;92.42;99865.00;5053944;28;20053;-65
2022/09/07 05:16:22;;;;;;;10.18;6.88;;;;;;;18.01;92.47;99866.63;5052153;28;20057;-64
2022/09/07 05:18:50;;;;;;;9.40;6.07;;;;;;;18.03;92.65;99872.69;5051263;28;20076;-65
2022/09/07 05:21:20;;;;;;;8.98;5.80;;;;;;;18.06;92.76;99877.59;5050939;28;20131;-64
2022/09/07 05:23:50;;;;;;;7.93;5.53;;;;;;;18.11;92.83;99877.25;5050944;28;20052;-64
2022/09/07 05:26:18;;;;;;;5.72;3.45;;;;;;;18.14;92.47;99870.84;5049501;28;20048;-64
2022/09/07 05:28:46;;;;;;;5.03;3.50;;;;;;;18.20;92.20;99872.13;5066986;28;20053;-65
2022/09/07 05:31:15;;;;;;;4.18;3.20;;;;;;;18.04;91.08;99875.13;5058949;28;20045;-47
2022/09/07 05:33:47;;;;;;;6.88;3.83;;;;;;;17.80;91.88;99881.97;5052837;28;20052;-47
2022/09/07 05:36:14;;;;;;;7.03;4.60;;;;;;;17.95;91.91;99882.22;5052284;28;20049;-49
2022/09/07 05:38:42;;;;;;;5.47;4.22;;;;;;;17.91;91.90;99892.63;5052150;28;20428;-50
2022/09/07 05:41:11;;;;;;;4.07;2.50;;;;;;;17.85;91.37;99892.16;5052443;28;20052;-49
2022/09/07 05:43:39;;;;;;;4.20;2.47;;;;;;;17.47;91.79;99895.88;5059424;28;20433;-49
2022/09/07 05:46:06;;;;;;;4.80;3.03;;;;;;;17.78;92.43;99894.81;5050184;28;20059;-48
2022/09/07 05:48:34;;;;;;;4.70;2.90;;;;;;;17.93;91.82;99890.25;5064426;28;20048;-50
2022/09/07 05:51:03;;;;;;;5.68;4.00;;;;;;;17.97;90.53;99896.75;5072898;28;20057;-51
2022/09/07 05:53:30;;;;;;;;;;;;;;;17.98;90.22;99884.28;5053429;28;20424;-48
2022/09/07 05:55:58;;;;;;;5.85;3.42;;;;;;;17.80;90.77;99898.88;5053671;28;19921;-49
2022/09/07 05:58:26;;;;;;;4.93;3.60;;;;;;;18.11;90.74;99899.78;5055325;28;20045;-49
2022/09/07 06:00:57;;;;;;;4.82;3.47;;;;;;;18.30;90.91;99903.69;5062428;28;20052;-47
2022/09/07 06:03:24;;;;;;;5.07;3.03;;;;;;;18.49;91.02;99902.75;5056459;28;20057;-48
2022/09/07 06:05:59;;;;;;;4.15;3.22;;;;;;;18.58;90.46;99904.09;5052809;28;20057;-48
2022/09/07 06:08:28;;;;;;;5.22;3.15;;;;;;;18.57;89.11;99908.09;5052449;28;20045;-48
2022/09/07 06:10:56;;;;;;;5.43;2.60;;;;;;;18.40;89.67;99903.84;5052577;28;20049;-49
2022/09/07 06:13:23;;;;;;;2.97;2.30;;;;;;;18.34;90.03;99899.72;5054056;28;20080;-49
2022/09/07 06:15:51;;;;;;;4.18;3.03;;;;;;;18.61;90.47;99896.88;5052558;28;20057;-51
2022/09/07 06:18:18;;;;;;;4.50;3.30;;;;;;;18.77;89.31;99886.19;5051765;28;20044;-49
2022/09/07 06:20:45;;;;;;;5.78;3.15;;;;;;;18.94;89.01;99886.78;5051786;28;20057;-51
2022/09/07 06:23:13;;;;;;;4.65;3.03;;;;;;;19.10;88.08;99895.03;5052310;28;20422;-48
2022/09/07 06:25:49;;;;;;;4.15;3.38;;;;;;;19.22;88.77;99898.41;5051865;28;20060;-63
2022/09/07 06:28:16;;;;;;;4.22;3.13;;;;;;;19.42;88.70;99899.03;5064968;28;20056;-65
2022/09/07 06:30:45;;;;;;;7.68;3.58;;;;;;;19.57;88.46;99904.78;5052708;28;20056;-65
2022/09/07 06:33:12;;;;;;;5.25;3.40;;;;;;;19.67;87.90;99910.56;5038803;28;20061;-66
2022/09/07 06:35:42;;;;;;;4.90;3.65;;;;;;;19.81;87.34;99918.34;5045505;28;20060;-65
2022/09/07 06:38:10;;;;;;;5.32;3.97;;;;;;;19.90;87.25;99920.03;5048440;28;20482;-65
2022/09/07 06:40:37;;;;;;;4.82;4.00;;;;;;;20.02;87.17;99916.91;5053938;28;20063;-65
2022/09/07 06:43:06;;;;;;;4.72;3.45;;;;;;;20.11;85.89;99917.38;5049768;28;20053;-65
2022/09/07 06:45:33;;;;;;;4.93;3.70;;;;;;;20.23;86.61;99919.88;5049770;28;20064;-65
2022/09/07 06:48:01;;;;;;;3.78;3.22;;;;;;;20.30;85.79;99923.97;5051561;28;20057;-65
2022/09/07 06:50:28;;;;;;;4.07;3.03;;;;;;;20.45;86.53;99917.19;5050692;28;20417;-65
2022/09/07 06:52:55;;;;;;;4.60;2.83;;;;;;;20.57;85.52;99918.88;5049957;28;20049;-65
2022/09/07 06:55:23;;;;;;;3.30;2.03;;;;;;;20.65;84.25;99909.25;5047247;28;20060;-65
2022/09/07 06:57:52;;;;;;;3.05;1.80;;;;;;;20.94;83.95;99915.84;5051308;28;20068;-65
2022/09/07 07:00:21;;;;;;;2.75;1.75;;;;;;;21.23;84.20;99915.91;5050362;28;20068;-65
2022/09/07 07:02:48;;;;;;;3.90;2.80;;;;;;;21.46;83.04;99915.56;5050012;28;20041;-65
2022/09/07 07:05:15;;;;;;;3.28;2.92;;;;;;;21.57;82.35;99924.13;5049451;28;20053;-65
2022/09/07 07:07:43;;;;;;;3.40;3.00;;;;;;;21.71;82.91;99932.63;5053724;28;20052;-64
2022/09/07 07:10:10;;;;;;;3.42;2.72;;;;;;;21.81;81.42;99940.31;5048342;28;20061;-65
2022/09/07 07:12:37;;;;;;;3.65;2.38;;;;;;;21.99;81.59;99946.00;5049220;28;20048;-64
2022/09/07 07:15:07;;;;;;;3.45;2.38;;;;;;;22.30;80.99;99943.59;5050395;28;20049;-65
2022/09/07 07:17:36;;;;;;;3.95;2.10;;;;;;;23.13;78.42;99940.50;5048682;28;20045;-64
2022/09/07 07:20:04;;;;;;;3.42;1.80;;;;;;;24.16;76.14;99946.72;5049683;28;20068;-64
2022/09/07 07:22:31;;;;;;;3.35;2.30;;;;;;;25.08;70.99;99946.97;5053013;28;20052;-64
2022/09/07 07:24:59;;;;;;;2.92;1.83;;;;;;;26.04;69.82;99938.25;5049402;28;20049;-64
2022/09/07 07:27:26;;;;;;;4.57;1.85;;;;;;;26.98;66.59;99937.31;5048310;28;20057;-64
2022/09/07 07:29:54;;;;;;;1.77;1.20;;;;;;;27.86;59.31;99935.78;5050934;28;20056;-64
2022/09/07 07:32:21;;;;;;;2.15;1.27;;;;;;;28.29;58.47;99941.22;5063177;28;20056;-64
2022/09/07 07:34:50;;;;;;;2.25;1.40;;;;;;;28.61;52.48;99935.91;5060974;28;20052;-64
2022/09/07 07:37:17;;;;;;;2.15;1.20;;;;;;;28.20;51.61;99943.09;5054131;28;20053;-64
2022/09/07 07:39:44;;;;;;;2.58;1.42;;;;;;;28.53;55.18;99933.22;5061677;28;20060;-64
2022/09/07 07:42:12;;;;;;;1.60;1.20;;;;;;;29.75;51.59;99934.56;5055742;28;20060;-64
2022/09/07 07:44:39;;;;;;;2.40;1.75;;;;;;;29.94;46.61;99936.41;5052454;28;20080;-64
2022/09/07 07:47:07;;;;;;;1.60;1.08;;;;;;;30.50;44.80;99936.97;5053954;28;20053;-64
2022/09/07 07:49:34;;;;;;;1.40;1.00;;;;;;;31.05;44.49;99923.03;5054414;28;20120;-64
2022/09/07 07:52:05;;;;;;;1.63;0.90;;;;;;;31.51;46.48;99929.06;5054008;28;20068;-64
2022/09/07 07:54:34;;;;;;;2.05;1.10;;;;;;;31.97;41.16;99928.44;5053896;28;20049;-63
2022/09/07 07:57:02;;;;;;;3.20;1.20;;;;;;;32.33;41.06;99933.50;5053108;28;20059;-64
2022/09/07 07:59:29;;;;;;;2.10;0.90;;;;;;;32.58;40.17;99928.75;5051557;28;20045;-64
2022/09/07 08:01:57;;;;;;;2.47;1.20;;;;;;;32.64;39.15;99938.34;5050522;28;20139;-63
2022/09/07 08:04:24;;;;;;;6.57;1.40;;;;;;;33.11;40.31;99933.38;5053193;28;20059;-65
2022/09/07 08:06:51;;;;;;;2.65;1.48;;;;;;;32.07;40.87;99943.72;5053679;28;20060;-64
2022/09/07 08:09:20;;;;;;;1.80;1.00;;;;;;;31.44;42.66;99946.63;5053899;28;20049;-64
2022/09/07 08:11:47;;;;;;;;;;;;;;;30.38;43.54;99957.94;5053774;28;20067;-64
2022/09/07 08:14:15;;;;;;;1.50;0.98;;;;;;;29.81;45.90;99960.63;5055689;28;19927;-64
2022/09/07 08:16:43;;;;;;;2.28;1.35;;;;;;;29.37;47.52;99968.97;5053206;28;20048;-64
2022/09/07 08:19:10;;;;;;;1.80;1.10;;;;;;;28.90;50.02;99976.84;5053180;28;20060;-64
2022/09/07 08:21:37;;;;;;;2.88;1.50;;;;;;;28.83;50.70;99973.34;5052923;28;20497;-64
2022/09/07 08:24:05;;;;;;;2.55;1.25;;;;;;;29.19;51.49;99978.09;5052674;28;20064;-64
2022/09/07 08:26:34;;;;;;;5.40;1.52;;;;;;;29.32;47.12;99976.88;5052383;28;20053;-64
2022/09/07 08:29:01;;;;;;;4.13;2.15;;;;;;;30.44;48.04;99977.00;5052706;28;20517;-64
2022/09/07 08:31:28;;;;;;;2.65;1.40;;;;;;;31.06;47.87;99969.88;5042364;28;20052;-63
2022/09/07 08:33:55;;;;;;;2.85;1.55;;;;;;;31.42;44.58;99975.06;5052810;28;20099;-64
2022/09/07 08:36:23;;;;;;;3.42;1.50;;;;;;;32.91;45.79;99980.03;5062005;28;20049;-65
2022/09/07 08:38:50;;;;;;;2.83;1.70;;;;;;;33.54;42.13;99981.22;5051649;28;20056;-64
2022/09/07 08:41:29;;;;;;;3.70;1.60;;;;;;;33.86;41.19;99978.06;5054222;28;20044;-64
2022/09/07 08:44:00;;;;;;;3.13;1.27;;;;;;;33.17;39.40;99983.38;5056670;28;20048;-64
2022/09/07 08:46:34;;;;;;;2.47;1.50;;;;;;;32.82;41.21;99988.66;5057418;28;20049;-64
2022/09/07 08:49:05;;;;;;;5.93;1.85;;;;;;;32.33;40.11;99984.59;5051787;28;20045;-63
2022/09/07 08:51:38;;;;;;;2.80;1.45;;;;;;;32.03;41.96;99977.63;5052816;28;20049;-63
2022/09/07 08:54:06;;;;;;;2.63;1.55;;;;;;;32.39;43.88;99979.00;5051977;28;20379;-64
2022/09/07 08:56:37;;;;;;;3.92;1.30;;;;;;;33.15;41.00;99989.63;5051263;28;20045;-64
2022/09/07 08:59:16;;;;;;;1.40;1.00;;;;;;;32.97;40.56;99978.09;5054922;28;20068;-64
2022/09/07 09:01:43;;;;;;;2.10;1.30;;;;;;;32.69;40.61;99980.97;5063829;28;20410;-63
2022/09/07 09:04:14;;;;;;;3.45;1.20;;;;;;;32.52;41.43;99979.66;5050497;28;20053;-64
2022/09/07 09:06:57;;;;;;;2.00;0.90;;;;;;;32.24;40.88;99990.34;5052982;28;20053;-64
2022/09/07 09:09:33;;;;;;;2.05;0.90;;;;;;;31.74;39.83;99987.41;5053551;28;20049;-63
2022/09/07 09:12:13;;;;;;;1.75;0.70;;;;;;;31.19;41.42;99981.31;5055951;28;20060;-64
2022/09/07 09:14:57;;;;;;;1.67;0.80;;;;;;;30.71;40.35;99987.94;5058569;28;20409;-64
2022/09/07 09:17:32;;;;;;;1.30;0.80;;;;;;;30.44;40.99;99991.34;5052438;28;20056;-64
2022/09/07 09:20:14;;;;;;;1.83;1.02;;;;;;;30.26;42.18;99991.97;5053634;28;20052;-64
2022/09/07 09:22:43;;;;;;;1.88;0.90;;;;;;;29.94;41.70;99988.09;5049898;28;20059;-64
2022/09/07 09:25:17;;;;;;;1.95;1.10;;;;;;;30.47;41.70;99984.69;5049480;28;20064;-64
2022/09/07 09:27:45;;;;;;;1.38;0.80;;;;;;;30.72;41.71;99980.13;5051288;28;20053;-64
2022/09/07 09:30:16;;;;;;;2.08;1.10;;;;;;;31.38;38.20;99970.72;5052118;28;20433;-64
2022/09/07 09:32:44;;;;;;;2.30;1.00;;;;;;;33.09;37.57;99973.44;5055474;28;20051;-63
2022/09/07 09:35:14;;;;;;;2.45;1.02;;;;;;;33.29;35.55;99970.06;5064254;28;20053;-63
2022/09/07 09:37:43;;;;;;;1.98;1.02;;;;;;;34.45;33.53;99977.59;5050610;28;20053;-64
2022/09/07 09:40:22;;;;;;;1.52;1.10;;;;;;;35.60;30.93;99978.03;5051032;28;20391;-63
2022/09/07 09:43:00;;;;;;;3.55;0.95;;;;;;;34.66;31.76;99970.72;5052416;28;20060;-64
2022/09/07 09:45:31;;;;;;;1.63;0.90;;;;;;;34.52;32.81;99977.22;5048570;28;20076;-63
2022/09/07 09:48:00;;;;;;;1.90;0.88;;;;;;;34.05;32.19;99973.00;5055494;28;20053;-63
2022/09/07 09:50:32;;;;;;;1.30;0.82;;;;;;;33.91;32.06;99969.53;5051662;28;20060;-64
2022/09/07 09:53:01;;;;;;;2.03;0.90;;;;;;;33.74;33.01;99968.31;5050986;28;20053;-63
2022/09/07 09:55:31;;;;;;;4.60;1.00;;;;;;;33.52;33.74;99966.47;5048126;28;20049;-63
2022/09/07 09:58:00;;;;;;;2.35;1.10;;;;;;;33.81;33.23;99968.00;5054561;28;20057;-63
2022/09/07 10:00:31;;;;;;;2.03;1.10;;;;;;;34.66;32.29;99970.72;5063312;28;20461;-64
2022/09/07 10:03:04;;;;;;;3.17;1.30;;;;;;;36.47;28.50;99950.63;5051210;28;20526;-64
2022/09/07 10:05:35;;;;;;;2.08;1.10;;;;;;;37.77;27.30;99944.88;5048939;28;20489;-63
2022/09/07 10:08:14;;;;;;;2.53;1.20;;;;;;;38.99;25.21;99961.94;5049167;28;20506;-64
2022/09/07 10:10:51;;;;;;;2.75;1.33;;;;;;;38.82;25.12;99961.88;5045075;28;20045;-63
2022/09/07 10:13:21;;;;;;;2.05;1.08;;;;;;;40.42;23.78;99949.72;5067464;28;20051;-64
2022/09/07 10:15:53;;;;;;;1.80;0.90;;;;;;;40.52;23.25;99954.72;5047714;28;20053;-63
2022/09/07 10:18:27;;;;;;;1.55;1.00;;;;;;;39.87;24.28;99952.22;5048970;28;20049;-63
2022/09/07 10:21:12;;;;;;;3.38;1.00;;;;;;;39.70;22.50;99947.19;5065275;28;20094;-64
2022/09/07 10:23:39;;;;;;;1.95;0.90;;;;;;;39.94;22.80;99942.94;5065774;28;20056;-63
2022/09/07 10:26:21;;;;;;;1.33;1.08;;;;;;;39.34;23.47;99937.38;5065175;28;20057;-63
2022/09/07 10:28:48;;;;;;;2.03;1.13;;;;;;;38.89;24.28;99943.91;5051541;28;20446;-63
2022/09/07 10:31:25;;;;;;;2.05;1.33;;;;;;;39.82;22.77;99942.13;5051658;28;20059;-63
2022/09/07 10:34:01;;;;;;;2.00;1.30;;;;;;;39.35;23.30;99939.75;5050789;28;20162;-63
2022/09/07 10:36:37;;;;;;;1.90;1.05;;;;;;;38.67;24.58;99947.53;5057804;28;20060;-63
2022/09/07 10:39:12;;;;;;;2.55;1.20;;;;;;;38.17;25.01;99948.06;5052260;28;20473;-63
2022/09/07 10:41:48;;;;;;;1.90;1.10;;;;;;;37.63;24.90;99948.72;5057619;28;20060;-63
2022/09/07 10:44:23;;;;;;;2.10;1.20;;;;;;;37.13;25.73;99944.06;5070416;28;20466;-63
2022/09/07 10:47:00;;;;;;;2.17;1.08;;;;;;;36.49;26.79;99943.00;5063296;28;20120;-63
2022/09/07 10:49:36;;;;;;;2.10;1.20;;;;;;;36.06;27.60;99944.78;5052314;28;20067;-63
2022/09/07 10:52:18;;;;;;;2.88;1.17;;;;;;;35.52;28.71;99948.66;5046821;28;20052;-63
2022/09/07 10:54:53;;;;;;;1.33;1.02;;;;;;;35.05;29.25;99955.41;5051383;28;20053;-63
2022/09/07 10:57:37;;;;;;;3.25;1.40;;;;;;;34.89;29.46;99951.72;5051740;28;20497;-63
2022/09/07 11:00:09;;;;;;;2.53;1.13;;;;;;;34.80;29.76;99960.47;5057335;28;20044;-63
2022/09/07 11:03:03;;;;;;;1.95;1.30;;;;;;;34.37;30.44;99957.72;5055077;28;20053;-63
2022/09/07 11:05:39;;;;;;;1.60;1.10;;;;;;;34.18;30.56;99959.13;5053993;28;20516;-63
2022/09/07 11:08:23;;;;;;;1.90;1.27;;;;;;;34.28;30.96;99957.78;5055708;28;20053;-64
2022/09/07 11:10:58;;;;;;;3.17;1.55;;;;;;;34.60;30.45;99955.31;5055252;28;20045;-63
2022/09/07 11:13:30;;;;;;;3.47;1.33;;;;;;;34.77;30.52;99952.78;5055985;28;20059;-63
2022/09/07 11:16:01;;;;;;;2.00;1.17;;;;;;;34.55;30.10;99951.00;5060869;28;20428;-63
2022/09/07 11:18:35;;;;;;;2.28;1.30;;;;;;;33.91;30.93;99945.59;5054303;28;20060;-63
2022/09/07 11:21:06;;;;;;;2.78;1.50;;;;;;;33.20;32.44;99949.84;5053610;28;20075;-63
2022/09/07 11:23:42;;;;;;;3.05;1.58;;;;;;;32.59;32.73;99947.66;5053456;28;20401;-64
2022/09/07 11:26:14;;;;;;;2.38;1.40;;;;;;;31.99;34.10;99956.81;5051406;28;20057;-63
2022/09/07 11:28:46;;;;;;;1.73;1.40;;;;;;;32.22;34.30;99953.34;5044809;28;20056;-63
2022/09/07 11:31:22;;;;;;;2.30;1.30;;;;;;;31.88;34.41;99957.22;5057490;28;20457;-64
2022/09/07 11:33:57;;;;;;;2.08;1.52;;;;;;;31.29;35.28;99960.75;5051957;28;20049;-65
2022/09/07 11:36:28;;;;;;;4.72;1.60;;;;;;;30.88;36.37;99967.66;5055445;28;20064;-63
2022/09/07 11:39:03;;;;;;;2.65;1.55;;;;;;;30.70;36.55;99965.41;5049943;28;20485;-64
2022/09/07 11:41:36;;;;;;;3.55;1.83;;;;;;;30.31;37.60;99967.59;5053442;28;20045;-64
2022/09/07 11:44:12;;;;;;;2.65;1.90;;;;;;;30.09;37.88;99956.00;5054105;28;20048;-64
2022/09/07 11:46:43;;;;;;;3.35;2.10;;;;;;;29.95;38.38;99963.03;5049524;28;20079;-64
2022/09/07 11:49:18;;;;;;;3.92;1.88;;;;;;;31.03;37.88;99956.44;5054229;28;20053;-64